Time;durP1;ratioP1;P1;durP2;ratioP2;P2;SDS_P1;SDS_P2;PMS_P1;PMS_P2;Temp;Humidity;BMP_temperature;BMP_pressure;BME280_temperature;BME280_humidity;BME280_pressure;Samples;Min_cycle;Max_cycle;Signal;HPM_P1;HPM_P2
2022/01/29 00:01:33;;;;;;;19.38;10.20;;;4.50;99.90;;;;;;5058783;28;20110;-54
2022/01/29 00:03:59;;;;;;;32.03;11.52;;;4.50;99.90;;;;;;5059096;28;20025;-53
2022/01/29 00:06:25;;;;;;;19.92;10.52;;;4.50;99.90;;;;;;5059725;28;20029;-51
2022/01/29 00:08:52;;;;;;;25.30;11.63;;;4.50;99.90;;;;;;5061345;28;20040;-54
2022/01/29 00:11:18;;;;;;;25.10;11.60;;;4.50;99.90;;;;;;5043842;28;20024;-55
2022/01/29 00:13:44;;;;;;;21.65;11.25;;;4.50;99.90;;;;;;5060139;28;20025;-55
2022/01/29 00:16:10;;;;;;;22.23;11.00;;;4.50;99.90;;;;;;5060390;28;20038;-57
2022/01/29 00:18:36;;;;;;;22.50;12.07;;;4.50;99.90;;;;;;5060093;28;20484;-53
2022/01/29 00:21:02;;;;;;;23.15;13.48;;;4.50;99.90;;;;;;5060004;28;20021;-55
2022/01/29 00:23:28;;;;;;;23.00;11.55;;;4.50;99.90;;;;;;5059712;28;20035;-57
2022/01/29 00:25:53;;;;;;;27.17;12.68;;;4.60;99.90;;;;;;5060704;28;20028;-58
2022/01/29 00:28:19;;;;;;;17.10;11.32;;;4.60;99.90;;;;;;5060387;28;20028;-56
2022/01/29 00:30:45;;;;;;;21.15;13.02;;;4.60;99.90;;;;;;5060589;28;20112;-56
2022/01/29 00:33:11;;;;;;;21.95;13.00;;;4.60;99.90;;;;;;5057839;28;20542;-58
2022/01/29 00:35:38;;;;;;;31.38;13.35;;;4.60;99.90;;;;;;5059232;28;20090;-53
2022/01/29 00:38:04;;;;;;;22.75;13.52;;;4.60;99.90;;;;;;5059489;28;20029;-55
2022/01/29 00:40:31;;;;;;;25.25;13.80;;;4.60;99.90;;;;;;5059863;28;20032;-57
2022/01/29 00:42:57;;;;;;;21.50;14.98;;;4.60;99.90;;;;;;5059648;28;20024;-56
2022/01/29 00:45:22;;;;;;;25.85;15.32;;;4.60;99.90;;;;;;5059657;28;20036;-57
2022/01/29 00:47:48;;;;;;;20.67;13.43;;;4.60;99.90;;;;;;5058525;28;20068;-54
2022/01/29 00:50:14;;;;;;;32.42;16.00;;;4.60;99.90;;;;;;5057867;28;20033;-55
2022/01/29 00:52:39;;;;;;;28.70;16.45;;;4.70;99.90;;;;;;5058740;28;20051;-55
2022/01/29 00:55:06;;;;;;;31.15;16.08;;;4.70;99.90;;;;;;5059993;28;20036;-55
2022/01/29 00:57:33;;;;;;;30.17;17.42;;;4.60;99.90;;;;;;5059153;28;20557;-56
2022/01/29 00:59:59;;;;;;;32.42;18.00;;;4.70;99.90;;;;;;5058524;28;20025;-56
2022/01/29 01:02:25;;;;;;;29.42;18.08;;;4.60;99.90;;;;;;5058401;28;20086;-55
2022/01/29 01:04:50;;;;;;;35.22;19.88;;;4.70;99.90;;;;;;5058803;28;20027;-56
2022/01/29 01:07:16;;;;;;;35.38;19.40;;;4.70;99.90;;;;;;5058182;28;20060;-58
2022/01/29 01:09:41;;;;;;;38.15;19.98;;;4.60;99.90;;;;;;5059955;28;20977;-56
2022/01/29 01:12:07;;;;;;;32.03;19.30;;;4.60;99.90;;;;;;5056906;28;20028;-57
2022/01/29 01:14:33;;;;;;;36.25;19.80;;;4.60;99.90;;;;;;5059543;28;20037;-58
2022/01/29 01:16:59;;;;;;;35.17;21.42;;;4.60;99.90;;;;;;5059338;28;20024;-54
2022/01/29 01:19:26;;;;;;;30.48;19.15;;;4.60;99.90;;;;;;5058605;28;20108;-54
2022/01/29 01:21:56;;;;;;;36.30;19.83;;;4.60;99.90;;;;;;5059234;28;20036;-58
2022/01/29 01:24:23;;;;;;;31.55;19.40;;;4.50;99.90;;;;;;5059245;28;20090;-57
2022/01/29 01:26:49;;;;;;;36.47;21.55;;;4.50;99.90;;;;;;5056088;28;20030;-54
2022/01/29 01:29:14;;;;;;;37.58;21.88;;;4.50;99.90;;;;;;5058526;28;20032;-56
2022/01/29 01:31:43;;;;;;;40.75;21.63;;;4.50;99.90;;;;;;5059196;28;20036;-56
2022/01/29 01:34:08;;;;;;;41.22;21.98;;;4.50;99.90;;;;;;5057941;28;20024;-57
2022/01/29 01:36:38;;;;;;;38.15;22.80;;;4.50;99.90;;;;;;5059065;28;20035;-59
2022/01/29 01:39:08;;;;;;;37.65;22.90;;;4.50;99.90;;;;;;5058485;28;20025;-55
2022/01/29 01:41:39;;;;;;;40.60;23.40;;;4.50;99.90;;;;;;5059734;28;20634;-58
2022/01/29 01:44:09;;;;;;;42.85;23.25;;;4.50;99.90;;;;;;5058407;28;20021;-56
2022/01/29 01:46:34;;;;;;;39.88;24.52;;;4.50;99.90;;;;;;5056937;28;20025;-57
2022/01/29 01:49:00;;;;;;;36.78;23.98;;;4.50;99.90;;;;;;5058399;28;20039;-53
2022/01/29 01:51:26;;;;;;;35.53;23.02;;;4.50;99.90;;;;;;5059025;28;20020;-53
2022/01/29 01:53:52;;;;;;;50.95;25.35;;;4.50;99.90;;;;;;5057721;28;20021;-54
2022/01/29 01:56:18;;;;;;;43.60;24.98;;;4.50;99.90;;;;;;5059027;28;20050;-53
2022/01/29 01:58:43;;;;;;;38.30;25.35;;;4.50;99.90;;;;;;5056198;28;20087;-57
2022/01/29 02:01:09;;;;;;;42.72;25.75;;;4.50;99.90;;;;;;5056029;28;20613;-56
2022/01/29 02:03:34;;;;;;;39.75;24.55;;;4.50;99.90;;;;;;5055296;28;20059;-55
2022/01/29 02:06:01;;;;;;;45.20;27.73;;;4.50;99.90;;;;;;5058855;28;20618;-57
2022/01/29 02:08:27;;;;;;;44.20;26.92;;;4.50;99.90;;;;;;5058733;28;20074;-57
2022/01/29 02:11:01;;;;;;;42.80;25.73;;;4.50;99.90;;;;;;5058304;28;20032;-55
2022/01/29 02:13:28;;;;;;;48.33;27.35;;;4.50;99.90;;;;;;5058392;28;20020;-56
2022/01/29 02:15:55;;;;;;;44.80;27.55;;;4.60;99.90;;;;;;5057967;28;20024;-54
2022/01/29 02:18:20;;;;;;;49.85;28.92;;;4.60;99.90;;;;;;5058172;28;20033;-57
2022/01/29 02:20:47;;;;;;;48.83;29.00;;;4.60;99.90;;;;;;5058209;28;20055;-53
2022/01/29 02:23:13;;;;;;;51.28;28.77;;;4.60;99.90;;;;;;5058236;28;20554;-53
2022/01/29 02:25:47;;;;;;;43.65;27.90;;;4.60;99.90;;;;;;5058775;28;20024;-54
2022/01/29 02:28:22;;;;;;;50.15;30.98;;;4.70;99.90;;;;;;5058554;28;20032;-57
2022/01/29 02:30:50;;;;;;;50.47;29.38;;;4.60;99.90;;;;;;5057504;28;20800;-59
2022/01/29 02:33:17;;;;;;;47.58;29.95;;;4.60;99.90;;;;;;5058220;28;20556;-58
2022/01/29 02:35:46;;;;;;;48.85;30.95;;;4.60;99.90;;;;;;5057214;28;20575;-57
2022/01/29 02:38:14;;;;;;;57.03;30.65;;;4.70;99.90;;;;;;5060179;28;20103;-55
2022/01/29 02:40:48;;;;;;;50.17;30.75;;;4.70;99.90;;;;;;5061842;28;20031;-54
2022/01/29 02:43:24;;;;;;;59.80;31.20;;;4.70;99.90;;;;;;5061709;28;20020;-56
2022/01/29 02:45:52;;;;;;;53.17;30.85;;;4.80;99.90;;;;;;5063221;28;20021;-57
2022/01/29 02:48:20;;;;;;;51.83;31.92;;;4.80;99.90;;;;;;5062123;28;20504;-60
2022/01/29 02:50:46;;;;;;;53.85;31.45;;;4.70;99.90;;;;;;5061698;28;20167;-57
2022/01/29 02:53:12;;;;;;;56.03;32.95;;;4.80;99.90;;;;;;5060682;28;20052;-54
2022/01/29 02:55:38;;;;;;;50.78;32.95;;;4.80;99.90;;;;;;5062008;28;20067;-54
2022/01/29 02:58:04;;;;;;;54.63;31.95;;;4.80;99.90;;;;;;5061526;28;20598;-52
2022/01/29 03:00:30;;;;;;;58.08;33.13;;;4.80;99.90;;;;;;5060430;28;20123;-54
2022/01/29 03:02:55;;;;;;;57.63;31.25;;;4.80;99.90;;;;;;5061971;28;20055;-55
2022/01/29 03:05:21;;;;;;;54.50;32.95;;;4.80;99.90;;;;;;5062499;28;20048;-56
2022/01/29 03:07:47;;;;;;;48.33;30.55;;;4.80;99.90;;;;;;5061662;28;20020;-59
2022/01/29 03:10:13;;;;;;;51.70;32.67;;;4.80;99.90;;;;;;5060678;28;20029;-54
2022/01/29 03:12:40;;;;;;;56.53;30.50;;;4.90;99.90;;;;;;5061387;28;20032;-51
2022/01/29 03:15:10;;;;;;;54.80;32.30;;;4.90;99.90;;;;;;5060984;28;20049;-55
2022/01/29 03:17:35;;;;;;;55.17;32.40;;;4.90;99.90;;;;;;5061336;28;20021;-54
2022/01/29 03:20:02;;;;;;;52.08;31.42;;;4.90;99.90;;;;;;5060194;28;20024;-54
2022/01/29 03:22:27;;;;;;;51.15;29.77;;;5.00;99.90;;;;;;5061698;28;20101;-58
2022/01/29 03:24:53;;;;;;;47.78;30.08;;;5.00;99.90;;;;;;5060920;28;20139;-52
2022/01/29 03:27:18;;;;;;;47.78;28.80;;;5.00;99.90;;;;;;5061675;28;20732;-54
2022/01/29 03:29:44;;;;;;;50.85;28.00;;;5.00;99.90;;;;;;5061011;28;20509;-54
2022/01/29 03:32:10;;;;;;;48.45;28.23;;;5.00;99.90;;;;;;5060695;28;20518;-57
2022/01/29 03:34:35;;;;;;;51.25;29.20;;;5.00;99.90;;;;;;5061303;28;20060;-58
2022/01/29 03:37:02;;;;;;;46.83;28.05;;;5.00;99.90;;;;;;5060974;28;20050;-53
2022/01/29 03:39:29;;;;;;;52.38;27.50;;;5.10;99.90;;;;;;5061341;28;20031;-55
2022/01/29 03:42:00;;;;;;;47.67;28.63;;;5.00;99.90;;;;;;5060840;28;20024;-55
2022/01/29 03:44:26;;;;;;;46.42;26.33;;;5.10;99.90;;;;;;5061756;28;20024;-56
2022/01/29 03:46:52;;;;;;;49.95;26.38;;;5.10;99.90;;;;;;5060740;28;20024;-53
2022/01/29 03:49:17;;;;;;;48.47;27.58;;;5.10;99.90;;;;;;5058677;28;20115;-56
2022/01/29 03:51:43;;;;;;;48.58;26.95;;;5.10;99.90;;;;;;5061205;28;20032;-51
2022/01/29 03:54:08;;;;;;;49.22;27.55;;;5.20;99.90;;;;;;5060139;28;20059;-57
2022/01/29 03:56:34;;;;;;;43.20;25.73;;;5.20;99.90;;;;;;5061118;28;20025;-56
2022/01/29 03:58:59;;;;;;;43.33;25.40;;;5.20;99.90;;;;;;5060697;28;20029;-57
2022/01/29 04:01:25;;;;;;;44.05;26.13;;;5.20;99.90;;;;;;5060548;28;20487;-53
2022/01/29 04:03:50;;;;;;;43.00;25.30;;;5.20;99.90;;;;;;5059248;28;20021;-58
2022/01/29 04:06:16;;;;;;;43.70;24.85;;;5.20;99.90;;;;;;5058776;28;20075;-53
2022/01/29 04:08:43;;;;;;;50.80;26.23;;;5.20;99.90;;;;;;5059302;28;20025;-50
2022/01/29 04:11:12;;;;;;;39.17;24.65;;;5.20;99.90;;;;;;5060175;28;20126;-50
2022/01/29 04:13:44;;;;;;;48.92;26.25;;;5.30;99.90;;;;;;5060422;28;20029;-51
2022/01/29 04:16:12;;;;;;;45.20;25.42;;;5.30;99.90;;;;;;5060384;28;20044;-52
2022/01/29 04:18:37;;;;;;;42.50;24.17;;;5.30;99.90;;;;;;5060304;28;20473;-54
2022/01/29 04:21:04;;;;;;;45.47;25.30;;;5.40;99.90;;;;;;5060571;28;20100;-55
2022/01/29 04:23:30;;;;;;;39.95;24.30;;;5.40;99.90;;;;;;5060414;28;20373;-54
2022/01/29 04:25:56;;;;;;;45.47;25.95;;;5.40;99.90;;;;;;5058841;28;20028;-55
2022/01/29 04:28:26;;;;;;;40.90;25.60;;;5.40;99.90;;;;;;5060962;28;20078;-58
2022/01/29 04:30:57;;;;;;;41.60;24.13;;;5.40;99.90;;;;;;5059678;28;20078;-57
2022/01/29 04:35:49;;;;;;;41.65;23.85;;;5.40;99.90;;;;;;5059041;28;20028;-54
2022/01/29 04:38:14;;;;;;;40.78;24.30;;;5.40;99.90;;;;;;5060089;28;20021;-56
2022/01/29 04:40:40;;;;;;;44.88;24.85;;;5.50;99.90;;;;;;5060050;28;20054;-57
2022/01/29 04:43:06;;;;;;;38.70;23.75;;;5.50;99.90;;;;;;5059828;28;20048;-59
2022/01/29 04:45:32;;;;;;;41.90;24.33;;;5.50;99.90;;;;;;5059606;28;20098;-54
2022/01/29 04:47:58;;;;;;;40.78;24.15;;;5.50;99.90;;;;;;5059532;28;20135;-55
2022/01/29 04:50:24;;;;;;;40.92;23.80;;;5.50;99.90;;;;;;5059842;28;20679;-52
2022/01/29 04:52:49;;;;;;;38.90;23.55;;;5.50;99.90;;;;;;5059466;28;20017;-59
2022/01/29 04:55:15;;;;;;;45.50;24.80;;;5.60;99.90;;;;;;5059555;28;20521;-51
2022/01/29 04:57:41;;;;;;;36.17;22.30;;;5.60;99.90;;;;;;5059705;28;20090;-55
2022/01/29 05:00:20;;;;;;;38.60;22.65;;;5.60;99.90;;;;;;5059562;28;20028;-54
2022/01/29 05:02:48;;;;;;;35.88;22.58;;;5.60;99.90;;;;;;5059524;28;20051;-58
2022/01/29 05:05:14;;;;;;;39.72;24.10;;;5.60;99.90;;;;;;5059335;28;20481;-56
2022/01/29 05:07:39;;;;;;;36.95;23.23;;;5.70;99.90;;;;;;5059204;28;20033;-55
2022/01/29 05:10:05;;;;;;;39.83;23.02;;;5.70;99.90;;;;;;5059591;28;20062;-56
2022/01/29 05:12:43;;;;;;;41.38;22.50;;;5.70;99.90;;;;;;5058930;28;20036;-56
2022/01/29 05:15:18;;;;;;;38.63;23.20;;;5.70;99.90;;;;;;5057069;28;20028;-55
2022/01/29 05:28:39;;;;;;;37.83;21.98;;;5.80;99.90;;;;;;5059160;28;20396;-55
2022/01/29 05:31:05;;;;;;;36.30;22.67;;;5.80;99.90;;;;;;5059004;28;20020;-57
2022/01/29 05:33:31;;;;;;;41.67;24.65;;;5.90;99.90;;;;;;5059391;28;20033;-51
2022/01/29 05:35:56;;;;;;;40.35;24.13;;;5.90;99.90;;;;;;5059148;28;20516;-52
2022/01/29 05:38:22;;;;;;;34.83;22.50;;;5.90;99.90;;;;;;5058616;28;20420;-53
2022/01/29 05:40:47;;;;;;;38.72;23.65;;;5.90;99.90;;;;;;5059000;28;20029;-59
2022/01/29 05:43:13;;;;;;;40.67;23.77;;;5.90;99.90;;;;;;5058594;28;20041;-54
2022/01/29 05:45:38;;;;;;;37.17;22.17;;;6.00;99.90;;;;;;5059224;28;20031;-55
2022/01/29 05:48:04;;;;;;;39.35;23.88;;;6.00;99.90;;;;;;5058708;28;20047;-53
2022/01/29 05:50:30;;;;;;;41.97;22.02;;;6.00;99.90;;;;;;5058552;28;20044;-58
2022/01/29 05:52:55;;;;;;;40.00;23.90;;;6.10;99.90;;;;;;5057983;28;20028;-51
2022/01/29 05:55:22;;;;;;;40.53;22.02;;;6.10;99.90;;;;;;5057782;28;20068;-53
2022/01/29 05:57:48;;;;;;;37.42;22.17;;;6.10;99.90;;;;;;5057285;28;20186;-55
2022/01/29 06:00:14;;;;;;;42.90;23.17;;;6.10;99.90;;;;;;5058464;28;20075;-56
2022/01/29 06:02:40;;;;;;;39.70;23.17;;;6.10;99.90;;;;;;5058474;28;20017;-54
2022/01/29 06:05:06;;;;;;;37.95;22.38;;;6.10;99.90;;;;;;5057334;28;20017;-56
2022/01/29 06:07:32;;;;;;;40.58;21.08;;;6.20;99.90;;;;;;5058740;28;20056;-57
2022/01/29 06:09:57;;;;;;;31.52;20.75;;;6.20;99.90;;;;;;5058563;28;20519;-53
2022/01/29 06:12:23;;;;;;;36.92;22.10;;;6.20;99.90;;;;;;5057506;28;20065;-54
2022/01/29 06:14:48;;;;;;;37.47;21.35;;;6.30;99.90;;;;;;5058400;28;20403;-57
2022/01/29 06:17:14;;;;;;;35.47;19.17;;;6.30;99.90;;;;;;5058327;28;20102;-55
2022/01/29 06:19:39;;;;;;;30.02;19.70;;;6.30;99.90;;;;;;5056718;28;20029;-52
2022/01/29 06:22:09;;;;;;;35.00;19.77;;;6.30;99.90;;;;;;5058462;28;20025;-52
2022/01/29 06:24:35;;;;;;;30.60;18.90;;;6.40;99.90;;;;;;5058120;28;20021;-54
2022/01/29 06:27:01;;;;;;;27.38;17.02;;;6.40;99.90;;;;;;5059339;28;20020;-60
2022/01/29 06:29:26;;;;;;;27.92;18.45;;;6.40;99.90;;;;;;5058298;28;20032;-52
2022/01/29 06:31:52;;;;;;;28.15;18.15;;;6.50;99.90;;;;;;5057873;28;20027;-56
2022/01/29 06:34:17;;;;;;;32.15;17.88;;;6.50;99.90;;;;;;5057816;28;20029;-56
2022/01/29 06:36:43;;;;;;;25.15;17.10;;;6.50;99.90;;;;;;5058283;28;20545;-51
2022/01/29 06:39:08;;;;;;;31.42;18.52;;;6.50;99.90;;;;;;5057682;28;20436;-56
2022/01/29 06:41:34;;;;;;;33.95;19.00;;;6.60;99.90;;;;;;5058178;28;20040;-54
2022/01/29 06:43:59;;;;;;;31.20;19.30;;;6.60;99.90;;;;;;5057572;28;20028;-52
2022/01/29 06:46:25;;;;;;;32.97;20.23;;;6.60;99.90;;;;;;5058006;28;20032;-57
2022/01/29 06:48:52;;;;;;;36.17;21.40;;;6.70;99.90;;;;;;5057354;28;20032;-56
2022/01/29 06:51:18;;;;;;;34.25;20.63;;;6.70;99.90;;;;;;5058169;28;20055;-58
2022/01/29 06:53:43;;;;;;;36.25;22.48;;;6.70;99.90;;;;;;5057096;28;20116;-59
2022/01/29 06:56:09;;;;;;;43.20;21.85;;;6.80;99.90;;;;;;5058317;28;20056;-55
2022/01/29 06:58:35;;;;;;;42.22;21.75;;;6.80;99.90;;;;;;5058437;28;20437;-54
2022/01/29 07:01:01;;;;;;;35.97;22.50;;;6.80;99.90;;;;;;5081075;28;20452;-55
2022/01/29 07:03:27;;;;;;;34.47;21.35;;;6.90;99.90;;;;;;5058335;28;20439;-56
2022/01/29 07:05:53;;;;;;;35.63;22.58;;;6.80;99.90;;;;;;5057563;28;20017;-54
2022/01/29 07:08:18;;;;;;;35.17;21.17;;;6.90;99.90;;;;;;5058013;28;20060;-57
2022/01/29 07:10:45;;;;;;;36.10;22.13;;;6.90;99.90;;;;;;5058035;28;20044;-55
2022/01/29 07:13:11;;;;;;;38.25;22.85;;;6.90;99.90;;;;;;5055612;28;20031;-57
2022/01/29 07:15:37;;;;;;;39.17;22.20;;;7.00;99.90;;;;;;5058112;28;20037;-58
2022/01/29 07:18:03;;;;;;;38.13;20.67;;;7.00;99.90;;;;;;5057881;28;20443;-58
2022/01/29 07:20:29;;;;;;;35.95;22.73;;;7.00;99.90;;;;;;5056759;28;20107;-57
2022/01/29 07:22:54;;;;;;;43.08;21.90;;;7.00;99.90;;;;;;5057416;28;20028;-55
2022/01/29 07:25:20;;;;;;;34.17;21.02;;;7.00;99.90;;;;;;5059327;28;20056;-55
2022/01/29 07:27:45;;;;;;;34.05;19.65;;;7.00;99.90;;;;;;5061928;28;20593;-57
2022/01/29 07:30:11;;;;;;;29.83;20.30;;;7.00;99.90;;;;;;5060703;28;20492;-54
2022/01/29 07:32:45;;;;;;;34.28;18.77;;;7.10;99.90;;;;;;5061511;28;20088;-55
2022/01/29 07:35:12;;;;;;;33.70;19.05;;;7.10;99.90;;;;;;5061051;28;20020;-60
2022/01/29 07:37:37;;;;;;;30.05;18.77;;;7.10;99.90;;;;;;5060980;28;20519;-53
2022/01/29 07:40:05;;;;;;;29.70;17.67;;;7.10;99.90;;;;;;5059764;28;20032;-55
2022/01/29 07:42:30;;;;;;;32.10;18.25;;;7.10;99.90;;;;;;5060954;28;20039;-55
2022/01/29 07:44:56;;;;;;;27.00;17.67;;;7.20;99.90;;;;;;5060966;28;20021;-53
2022/01/29 07:47:21;;;;;;;21.55;16.08;;;7.20;99.90;;;;;;5060854;28;20530;-58
2022/01/29 07:49:47;;;;;;;26.25;16.10;;;7.20;99.90;;;;;;5060721;28;20021;-53
2022/01/29 07:52:12;;;;;;;22.65;16.30;;;7.20;99.90;;;;;;5060806;28;20108;-52
2022/01/29 07:54:38;;;;;;;23.40;15.15;;;7.20;99.90;;;;;;5061363;28;20037;-53
2022/01/29 07:57:04;;;;;;;21.98;15.43;;;7.20;99.90;;;;;;5060749;28;20031;-55
2022/01/29 07:59:30;;;;;;;21.33;14.93;;;7.30;99.90;;;;;;5059818;28;20090;-56
2022/01/29 08:01:55;;;;;;;19.48;13.82;;;7.30;99.90;;;;;;5059668;28;20032;-57
2022/01/29 08:04:24;;;;;;;18.65;14.07;;;7.30;99.90;;;;;;5060520;28;20384;-50
2022/01/29 08:06:50;;;;;;;19.23;13.52;;;7.30;99.90;;;;;;5061271;28;20381;-50
2022/01/29 08:09:15;;;;;;;17.52;12.27;;;7.20;99.90;;;;;;5059950;28;20098;-54
2022/01/29 08:11:41;;;;;;;17.83;12.43;;;7.20;99.90;;;;;;5061127;28;20050;-56
2022/01/29 08:14:06;;;;;;;17.33;11.57;;;7.30;99.90;;;;;;5060453;28;20021;-58
2022/01/29 08:16:32;;;;;;;16.35;11.65;;;7.20;99.90;;;;;;5060586;28;20112;-59
2022/01/29 08:18:57;;;;;;;16.15;11.75;;;7.30;99.90;;;;;;5061174;28;20455;-50
2022/01/29 08:21:23;;;;;;;17.75;11.27;;;7.30;99.90;;;;;;5060322;28;20017;-52
2022/01/29 08:23:49;;;;;;;15.07;11.05;;;7.30;99.90;;;;;;5060682;28;20021;-57
2022/01/29 08:26:14;;;;;;;14.57;9.98;;;7.30;99.90;;;;;;5060403;28;20054;-52
2022/01/29 08:28:40;;;;;;;15.43;9.77;;;7.30;99.90;;;;;;5060305;28;20035;-51
2022/01/29 08:31:06;;;;;;;14.45;9.88;;;7.30;99.90;;;;;;5060312;28;20021;-52
2022/01/29 08:33:32;;;;;;;12.63;10.20;;;7.30;99.90;;;;;;5059866;28;20493;-54
2022/01/29 08:35:58;;;;;;;12.95;9.77;;;7.40;99.90;;;;;;5059467;28;20548;-54
2022/01/29 08:38:24;;;;;;;16.23;10.02;;;7.40;99.90;;;;;;5059666;28;20397;-55
2022/01/29 08:40:49;;;;;;;14.55;9.48;;;7.30;99.90;;;;;;5060208;28;20024;-53
2022/01/29 08:43:15;;;;;;;13.60;9.32;;;7.30;99.90;;;;;;5059910;28;20485;-58
2022/01/29 08:45:41;;;;;;;13.05;10.20;;;7.40;99.90;;;;;;5059421;28;20091;-53
2022/01/29 08:48:06;;;;;;;22.00;11.10;;;7.40;99.90;;;;;;5059138;28;20555;-52
2022/01/29 08:50:32;;;;;;;15.25;10.93;;;7.40;99.90;;;;;;5059538;28;20036;-55
2022/01/29 08:52:58;;;;;;;11.60;9.43;;;7.40;99.90;;;;;;5059868;28;20481;-57
2022/01/29 08:55:23;;;;;;;13.82;10.13;;;7.40;99.90;;;;;;5059035;28;20394;-60
2022/01/29 08:57:49;;;;;;;15.20;10.70;;;7.40;99.90;;;;;;5060455;28;20028;-56
2022/01/29 09:00:15;;;;;;;15.20;11.15;;;7.40;99.90;;;;;;5059608;28;20021;-55
2022/01/29 09:02:41;;;;;;;15.30;9.85;;;7.40;99.90;;;;;;5060113;28;20496;-57
2022/01/29 09:05:07;;;;;;;11.98;9.20;;;7.40;99.90;;;;;;5059453;28;20105;-56
2022/01/29 09:07:33;;;;;;;13.63;9.52;;;7.50;99.90;;;;;;5059341;28;20440;-56
2022/01/29 09:09:59;;;;;;;14.10;9.50;;;7.50;99.90;;;;;;5059672;28;20032;-52
2022/01/29 09:12:25;;;;;;;16.48;10.27;;;7.50;99.90;;;;;;5058589;28;20052;-55
2022/01/29 09:14:50;;;;;;;16.63;10.30;;;7.50;99.90;;;;;;5058949;28;20033;-58
2022/01/29 09:17:16;;;;;;;14.20;10.45;;;7.50;99.90;;;;;;5060416;28;20054;-57
2022/01/29 09:19:41;;;;;;;14.80;9.50;;;7.50;99.90;;;;;;5059170;28;20431;-57
2022/01/29 09:22:07;;;;;;;15.52;10.45;;;7.60;99.90;;;;;;5058453;28;20048;-58
2022/01/29 09:24:33;;;;;;;16.00;10.18;;;7.60;99.90;;;;;;5059248;28;20036;-54
2022/01/29 09:26:59;;;;;;;14.63;9.52;;;7.60;99.90;;;;;;5058794;28;20101;-54
2022/01/29 09:29:25;;;;;;;10.73;9.18;;;7.60;99.90;;;;;;5058898;28;20078;-59
2022/01/29 09:31:51;;;;;;;15.05;9.15;;;7.60;99.90;;;;;;5058663;28;20052;-55
2022/01/29 09:34:16;;;;;;;13.77;9.40;;;7.60;99.90;;;;;;5057316;28;20036;-55
2022/01/29 09:36:42;;;;;;;12.13;9.45;;;7.70;99.90;;;;;;5060283;28;20059;-56
2022/01/29 09:39:07;;;;;;;12.80;9.60;;;7.70;99.90;;;;;;5058629;28;20062;-56
2022/01/29 09:41:38;;;;;;;15.68;9.43;;;7.70;99.90;;;;;;5059251;28;20036;-57
2022/01/29 09:44:04;;;;;;;14.40;8.90;;;7.70;99.90;;;;;;5058739;28;20024;-57
2022/01/29 09:46:32;;;;;;;12.30;8.65;;;7.70;99.90;;;;;;5058817;28;20486;-55
2022/01/29 09:48:59;;;;;;;13.85;8.90;;;7.70;99.90;;;;;;5058334;28;20414;-57
2022/01/29 09:51:26;;;;;;;14.68;8.43;;;7.70;99.90;;;;;;5056973;28;20037;-59
2022/01/29 09:53:52;;;;;;;15.07;9.40;;;7.80;99.90;;;;;;5058788;28;20461;-56
2022/01/29 09:56:17;;;;;;;13.48;9.10;;;7.80;99.90;;;;;;5058414;28;20155;-57
2022/01/29 09:58:43;;;;;;;12.85;8.55;;;7.80;99.90;;;;;;5057918;28;20055;-56
2022/01/29 10:01:10;;;;;;;12.50;8.65;;;7.80;99.90;;;;;;5058644;28;20029;-58
2022/01/29 10:03:36;;;;;;;12.23;9.02;;;7.80;99.90;;;;;;5058234;28;20050;-58
2022/01/29 10:06:03;;;;;;;16.05;9.27;;;7.80;99.90;;;;;;5059116;28;20021;-59
2022/01/29 10:08:30;;;;;;;13.80;9.10;;;7.80;99.90;;;;;;5058343;28;20033;-57
2022/01/29 10:10:58;;;;;;;14.00;9.13;;;7.80;99.90;;;;;;5058637;28;20037;-58
2022/01/29 10:13:28;;;;;;;12.98;8.75;;;7.80;99.90;;;;;;5057752;28;20017;-61
2022/01/29 10:16:08;;;;;;;15.10;8.55;;;7.80;99.90;;;;;;5059913;28;20027;-55
2022/01/29 10:18:35;;;;;;;11.95;9.02;;;7.80;99.90;;;;;;5058375;28;20086;-53
2022/01/29 10:21:10;;;;;;;14.18;8.30;;;7.80;99.90;;;;;;5058434;28;20029;-57
2022/01/29 10:23:36;;;;;;;12.88;8.50;;;7.80;99.90;;;;;;5058039;28;20602;-58
2022/01/29 10:26:04;;;;;;;12.32;7.80;;;7.80;99.90;;;;;;5058239;28;20032;-60
2022/01/29 10:28:30;;;;;;;14.07;8.95;;;7.80;99.90;;;;;;5058393;28;20052;-54
2022/01/29 10:31:02;;;;;;;13.32;8.77;;;7.80;99.90;;;;;;5058909;28;20493;-58
2022/01/29 10:33:34;;;;;;;10.80;8.20;;;7.80;99.90;;;;;;5058555;28;20025;-56
2022/01/29 10:36:02;;;;;;;15.18;7.90;;;7.90;99.90;;;;;;5058378;28;20500;-57
2022/01/29 10:38:46;;;;;;;11.93;7.50;;;7.90;99.90;;;;;;5058120;28;20031;-59
2022/01/29 10:41:21;;;;;;;9.57;7.07;;;7.90;99.90;;;;;;5058160;28;20037;-57
2022/01/29 10:44:10;;;;;;;11.48;6.85;;;7.90;99.90;;;;;;5056603;28;20108;-59
2022/01/29 10:46:42;;;;;;;8.98;7.13;;;7.90;99.90;;;;;;5058288;28;20046;-56
2022/01/29 10:49:08;;;;;;;8.85;6.70;;;7.90;99.90;;;;;;5058834;28;20028;-58
2022/01/29 10:51:35;;;;;;;9.65;6.78;;;7.90;99.90;;;;;;5056778;28;20074;-58
2022/01/29 10:54:18;;;;;;;10.93;6.75;;;7.90;99.90;;;;;;5057956;28;20044;-58
2022/01/29 10:56:55;;;;;;;8.18;6.82;;;8.00;99.90;;;;;;5058254;28;20044;-56
2022/01/29 10:59:22;;;;;;;7.90;6.25;;;8.00;99.90;;;;;;5059801;28;20029;-57
2022/01/29 11:01:53;;;;;;;9.20;6.25;;;8.00;99.90;;;;;;5062009;28;20031;-56
2022/01/29 11:04:18;;;;;;;8.70;6.72;;;8.00;99.90;;;;;;5061732;28;20040;-55
2022/01/29 11:06:46;;;;;;;12.80;8.18;;;8.00;99.90;;;;;;5059993;28;20024;-57
2022/01/29 11:09:13;;;;;;;9.35;7.40;;;8.00;99.90;;;;;;5062417;28;20384;-58
2022/01/29 11:11:40;;;;;;;16.63;7.78;;;8.00;99.90;;;;;;5061916;28;20033;-54
2022/01/29 11:14:07;;;;;;;11.05;7.55;;;8.00;99.90;;;;;;5061763;28;20043;-57
2022/01/29 11:16:34;;;;;;;11.07;7.55;;;8.10;99.90;;;;;;5062109;28;20039;-59
2022/01/29 11:19:00;;;;;;;8.73;7.00;;;8.10;99.90;;;;;;5061419;28;20096;-56
2022/01/29 11:21:26;;;;;;;12.52;8.48;;;8.10;99.90;;;;;;5059145;28;20083;-59
2022/01/29 11:23:53;;;;;;;11.10;7.80;;;8.10;99.90;;;;;;5061652;28;20028;-55
2022/01/29 11:26:19;;;;;;;11.60;7.90;;;8.10;99.90;;;;;;5061255;28;20064;-58
2022/01/29 11:28:44;;;;;;;12.70;8.45;;;8.10;99.90;;;;;;5061472;28;20115;-54
2022/01/29 11:31:13;;;;;;;14.07;9.15;;;8.10;99.90;;;;;;5061533;28;20483;-60
2022/01/29 11:33:57;;;;;;;12.70;8.63;;;8.20;99.90;;;;;;5060189;28;20037;-57
2022/01/29 11:36:49;;;;;;;16.35;8.60;;;8.20;99.90;;;;;;5062830;28;20061;-57
2022/01/29 11:39:29;;;;;;;12.65;8.60;;;8.20;99.90;;;;;;5062791;28;20104;-58
2022/01/29 11:42:13;;;;;;;12.38;8.20;;;8.20;99.90;;;;;;5061265;28;20047;-58
2022/01/29 11:44:42;;;;;;;12.70;8.60;;;8.20;99.90;;;;;;5060613;28;20027;-58
2022/01/29 11:47:24;;;;;;;12.45;8.35;;;8.30;99.90;;;;;;5062019;28;20392;-56
2022/01/29 11:49:51;;;;;;;12.93;8.57;;;8.30;99.90;;;;;;5061134;28;20436;-58
2022/01/29 11:52:25;;;;;;;10.75;8.00;;;8.30;99.90;;;;;;5060622;28;20024;-58
2022/01/29 11:55:00;;;;;;;11.40;7.90;;;8.30;99.90;;;;;;5059865;28;20036;-55
2022/01/29 11:57:26;;;;;;;11.00;7.53;;;8.30;99.90;;;;;;5061720;28;20040;-57
2022/01/29 11:59:52;;;;;;;10.68;7.75;;;8.30;99.90;;;;;;5061997;28;20397;-53
2022/01/29 12:02:17;;;;;;;11.15;6.60;;;8.40;99.90;;;;;;5061712;28;20067;-59
2022/01/29 12:04:53;;;;;;;11.18;6.80;;;8.40;99.90;;;;;;5062038;28;20044;-56
2022/01/29 12:07:38;;;;;;;;;;;8.40;99.90;;;;;;5062864;28;20023;-58
2022/01/29 12:10:12;;;;;;;11.70;7.13;;;8.40;99.90;;;;;;5061869;28;19912;-55
2022/01/29 12:12:39;;;;;;;11.73;7.20;;;8.40;99.90;;;;;;5059916;28;20404;-57
2022/01/29 12:15:11;;;;;;;9.32;7.72;;;8.40;99.90;;;;;;5060954;28;20032;-53
2022/01/29 12:17:43;;;;;;;14.10;7.10;;;8.50;99.90;;;;;;5060488;28;20031;-58
2022/01/29 12:20:12;;;;;;;10.55;7.50;;;8.50;99.90;;;;;;5059420;28;20020;-58
2022/01/29 12:22:38;;;;;;;9.07;7.65;;;8.50;99.90;;;;;;5060021;28;20054;-58
2022/01/29 12:25:07;;;;;;;12.07;6.85;;;8.50;99.90;;;;;;5060950;28;20404;-57
2022/01/29 12:27:46;;;;;;;10.02;6.03;;;8.50;99.90;;;;;;5059699;28;20141;-58
2022/01/29 12:30:19;;;;;;;8.13;7.32;;;8.50;99.90;;;;;;5060006;28;20031;-56
2022/01/29 12:33:02;;;;;;;11.68;6.20;;;8.50;99.90;;;;;;5058316;28;20024;-57
2022/01/29 12:35:40;;;;;;;9.25;6.63;;;8.60;99.90;;;;;;5059734;28;20028;-55
2022/01/29 12:38:08;;;;;;;9.98;6.50;;;8.60;99.90;;;;;;5058963;28;20025;-56
2022/01/29 12:40:39;;;;;;;9.93;6.80;;;8.60;99.90;;;;;;5058415;28;20037;-56
2022/01/29 12:43:28;;;;;;;8.75;6.57;;;8.60;99.90;;;;;;5059227;28;20016;-56
2022/01/29 12:45:54;;;;;;;7.82;6.22;;;8.60;99.90;;;;;;5050346;28;20040;-57
2022/01/29 12:48:20;;;;;;;9.32;6.13;;;8.70;99.90;;;;;;5060258;28;20257;-57
2022/01/29 12:50:46;;;;;;;10.13;5.72;;;8.70;99.90;;;;;;5059725;28;20029;-55
2022/01/29 12:53:18;;;;;;;9.63;6.30;;;8.70;99.90;;;;;;5059832;28;20512;-59
2022/01/29 12:55:57;;;;;;;7.28;5.82;;;8.70;99.90;;;;;;5058506;28;20040;-59